createdAt,value
2024-05-09T00:00:29.613Z,61.69
2024-05-09T00:01:19.890Z,61.69
2024-05-09T00:02:18.893Z,61.71
2024-05-09T00:03:18.860Z,61.71
2024-05-09T00:04:18.941Z,61.71
2024-05-09T00:05:19.014Z,61.69
2024-05-09T00:06:18.849Z,61.71
2024-05-09T00:07:18.803Z,61.71
2024-05-09T00:08:18.966Z,61.61
2024-05-09T00:09:18.802Z,61.71
2024-05-09T00:10:25.522Z,61.69
2024-05-09T00:11:19.901Z,61.71
2024-05-09T00:12:18.830Z,61.71
2024-05-09T00:13:18.746Z,61.71
2024-05-09T00:14:18.802Z,61.71
2024-05-09T00:15:18.740Z,61.71
2024-05-09T00:16:18.721Z,61.71
2024-05-09T00:17:18.811Z,61.71
2024-05-09T00:18:18.903Z,61.71
2024-05-09T00:19:18.803Z,61.71
2024-05-09T00:20:24.491Z,61.71
2024-05-09T00:21:19.679Z,61.71
2024-05-09T00:22:18.636Z,61.71
2024-05-09T00:23:18.667Z,61.71
2024-05-09T00:24:18.612Z,61.71
2024-05-09T00:25:18.605Z,61.71
2024-05-09T00:26:18.677Z,61.71
2024-05-09T00:27:18.584Z,61.71
2024-05-09T00:28:18.579Z,61.71
2024-05-09T00:29:18.599Z,61.71
2024-05-09T00:30:27.752Z,61.71
2024-05-09T00:31:19.578Z,61.71
2024-05-09T00:32:18.663Z,61.71
2024-05-09T00:33:18.764Z,61.71
2024-05-09T00:34:18.644Z,61.71
2024-05-09T00:35:18.523Z,61.82
2024-05-09T00:36:18.516Z,61.71
2024-05-09T00:37:18.478Z,61.71
2024-05-09T00:38:18.491Z,61.71
2024-05-09T00:39:18.477Z,61.71
2024-05-09T00:40:26.592Z,61.71
2024-05-09T00:41:19.924Z,61.71
2024-05-09T00:42:18.420Z,61.71
2024-05-09T00:43:18.409Z,61.71
2024-05-09T00:44:18.446Z,61.71
2024-05-09T00:45:18.392Z,61.82
2024-05-09T00:46:18.406Z,61.82
2024-05-09T00:47:18.491Z,61.82
2024-05-09T00:48:20.966Z,61.82
2024-05-09T00:49:18.498Z,61.82
2024-05-09T00:50:23.036Z,61.71
2024-05-09T00:51:19.489Z,61.82
2024-05-09T00:52:18.319Z,61.82
2024-05-09T00:53:18.356Z,61.82
2024-05-09T00:54:18.292Z,61.82
2024-05-09T00:55:18.293Z,61.82
2024-05-09T00:56:18.374Z,61.82
2024-05-09T00:57:18.258Z,61.82
2024-05-09T00:58:18.263Z,61.82
2024-05-09T00:59:18.298Z,61.82
2024-05-09T01:00:26.717Z,61.82
2024-05-09T01:01:19.269Z,61.82
2024-05-09T01:02:18.275Z,61.82
2024-05-09T01:03:18.423Z,61.82
2024-05-09T01:04:18.248Z,61.82
2024-05-09T01:05:18.257Z,61.82
2024-05-09T01:06:18.188Z,61.82
2024-05-09T01:07:18.147Z,61.82
2024-05-09T01:08:18.203Z,61.82
2024-05-09T01:09:18.128Z,61.82
2024-05-09T01:10:24.318Z,61.82
2024-05-09T01:11:19.249Z,61.82
2024-05-09T01:12:18.283Z,61.82
2024-05-09T01:13:18.099Z,61.82
2024-05-09T01:14:18.147Z,61.82
2024-05-09T01:15:18.066Z,61.91
2024-05-09T01:16:18.081Z,61.91
2024-05-09T01:17:18.130Z,61.82
2024-05-09T01:18:18.155Z,61.91
2024-05-09T01:19:18.146Z,61.82
2024-05-09T01:20:22.911Z,61.82
2024-05-09T01:21:19.143Z,61.91
2024-05-09T01:22:18.028Z,61.82
2024-05-09T01:23:18.028Z,61.91
2024-05-09T01:24:17.968Z,61.91
2024-05-09T01:25:17.952Z,61.91
2024-05-09T01:26:17.962Z,61.91
2024-05-09T01:27:17.970Z,61.91
2024-05-09T01:28:17.923Z,61.82
2024-05-09T01:29:17.955Z,61.91
2024-05-09T01:30:39.068Z,61.91
2024-05-09T01:31:17.894Z,61.91
2024-05-09T01:32:18.032Z,61.91
2024-05-09T01:33:18.080Z,61.91
2024-05-09T01:34:17.886Z,61.91
2024-05-09T01:35:17.902Z,61.91
2024-05-09T01:36:17.833Z,61.91
2024-05-09T01:37:17.827Z,61.91
2024-05-09T01:38:17.913Z,61.91
2024-05-09T01:39:17.806Z,61.91
2024-05-09T01:40:22.130Z,61.91
2024-05-09T01:41:18.817Z,61.91
2024-05-09T01:42:17.786Z,61.91
2024-05-09T01:43:17.820Z,61.91
2024-05-09T01:44:17.805Z,61.91
2024-05-09T01:45:17.752Z,61.91
2024-05-09T01:46:17.748Z,61.91
2024-05-09T01:47:17.889Z,61.91
2024-05-09T01:48:17.895Z,61.91
2024-05-09T01:49:17.939Z,61.91
2024-05-09T01:50:22.500Z,61.91
2024-05-09T01:51:18.763Z,61.91
2024-05-09T01:52:17.681Z,61.91
2024-05-09T01:53:17.727Z,61.91
2024-05-09T01:54:17.645Z,61.91
2024-05-09T01:55:17.657Z,61.91
2024-05-09T01:56:17.766Z,61.91
2024-05-09T01:57:17.611Z,61.91
2024-05-09T01:58:17.602Z,61.91
2024-05-09T01:59:17.752Z,61.91
2024-05-09T02:00:26.250Z,61.91
2024-05-09T02:01:18.653Z,61.91
2024-05-09T02:02:17.794Z,61.91
2024-05-09T02:03:18.153Z,61.91
2024-05-09T02:04:17.685Z,61.91
2024-05-09T02:05:17.763Z,62.02
2024-05-09T02:06:17.643Z,61.91
2024-05-09T02:07:17.504Z,61.91
2024-05-09T02:08:18.224Z,61.91
2024-05-09T02:09:17.482Z,61.91
2024-05-09T02:10:23.479Z,62.02
2024-05-09T02:11:18.595Z,61.91
2024-05-09T02:12:17.663Z,61.91
2024-05-09T02:13:17.451Z,62.02
2024-05-09T02:14:17.445Z,62.02
2024-05-09T02:15:17.433Z,62.02
2024-05-09T02:16:17.443Z,62.02
2024-05-09T02:17:17.468Z,62.02
2024-05-09T02:18:17.568Z,62.02
2024-05-09T02:19:17.488Z,62.02
2024-05-09T02:20:26.760Z,62.02
2024-05-09T02:21:18.396Z,62.02
2024-05-09T02:22:17.354Z,62.02
2024-05-09T02:23:17.456Z,62.02
2024-05-09T02:24:17.327Z,61.91
2024-05-09T02:25:17.316Z,62.02
2024-05-09T02:26:17.405Z,62.02
2024-05-09T02:27:17.294Z,62.02
2024-05-09T02:28:17.285Z,62.02
2024-05-09T02:29:17.346Z,62.02
2024-05-09T02:30:25.848Z,62.02
2024-05-09T02:31:18.286Z,62.02
2024-05-09T02:32:17.322Z,62.02
2024-05-09T02:33:17.349Z,62.02
2024-05-09T02:34:17.312Z,62.02
2024-05-09T02:35:17.272Z,62.02
2024-05-09T02:36:17.222Z,62.02
2024-05-09T02:37:17.226Z,62.02
2024-05-09T02:38:17.332Z,62.02
2024-05-09T02:39:17.161Z,62.02
2024-05-09T02:40:25.212Z,62.02
2024-05-09T02:41:18.230Z,62.02
2024-05-09T02:42:17.190Z,62.02
2024-05-09T02:43:17.144Z,62.02
2024-05-09T02:44:17.132Z,62.02
2024-05-09T02:45:17.108Z,62.02
2024-05-09T02:46:17.096Z,62.02
2024-05-09T02:47:17.208Z,62.02
2024-05-09T02:48:17.226Z,62.02
2024-05-09T02:49:17.280Z,62.02
2024-05-09T02:50:25.986Z,62.02
2024-05-09T02:51:18.062Z,62.02
2024-05-09T02:52:17.043Z,62.02
2024-05-09T02:53:17.120Z,62.12
2024-05-09T02:54:17.011Z,62.02
2024-05-09T02:55:16.987Z,62.12
2024-05-09T02:56:17.066Z,62.02
2024-05-09T02:57:16.963Z,62.12
2024-05-09T02:58:16.994Z,62.12
2024-05-09T02:59:16.991Z,62.02
2024-05-09T03:00:22.786Z,62.02
2024-05-09T03:01:17.965Z,62.12
2024-05-09T03:02:16.986Z,62.02
2024-05-09T03:03:17.161Z,62.02
2024-05-09T03:04:17.014Z,62.02
2024-05-09T03:05:16.941Z,62.12
2024-05-09T03:06:16.899Z,62.02
2024-05-09T03:07:19.724Z,62.12
2024-05-09T03:08:16.983Z,62.12
2024-05-09T03:09:16.848Z,62.12
2024-05-09T03:10:22.354Z,62.12
2024-05-09T03:11:17.913Z,62.12
2024-05-09T03:12:16.850Z,62.12
2024-05-09T03:13:16.813Z,62.12
2024-05-09T03:14:16.813Z,62.12
2024-05-09T03:15:16.768Z,62.12
2024-05-09T03:16:16.804Z,62.12
2024-05-09T03:17:16.809Z,62.12
2024-05-09T03:18:16.948Z,62.12
2024-05-09T03:19:16.784Z,62.12
2024-05-09T03:20:23.383Z,62.12
2024-05-09T03:21:17.795Z,62.12
2024-05-09T03:22:16.694Z,62.12
2024-05-09T03:23:16.801Z,62.12
2024-05-09T03:24:16.719Z,62.12
2024-05-09T03:25:16.668Z,62.12
2024-05-09T03:26:16.742Z,62.12
2024-05-09T03:27:16.651Z,62.12
2024-05-09T03:28:16.669Z,62.12
2024-05-09T03:29:16.714Z,62.12
2024-05-09T03:30:28.907Z,62.12
2024-05-09T03:31:17.632Z,62.12
2024-05-09T03:32:16.674Z,62.12
2024-05-09T03:33:17.383Z,62.12
2024-05-09T03:34:16.676Z,62.12
2024-05-09T03:35:16.638Z,62.12
2024-05-09T03:36:16.545Z,62.12
2024-05-09T03:37:16.535Z,62.12
2024-05-09T03:38:16.939Z,62.12
2024-05-09T03:39:16.546Z,62.12
2024-05-09T03:40:23.364Z,62.12
2024-05-09T03:41:17.515Z,62.12
2024-05-09T03:42:16.491Z,62.12
2024-05-09T03:43:16.479Z,62.12
2024-05-09T03:44:16.569Z,62.12
2024-05-09T03:45:16.454Z,62.12
2024-05-09T03:46:16.444Z,62.12
2024-05-09T03:47:16.630Z,62.12
2024-05-09T03:48:16.835Z,62.12
2024-05-09T03:49:16.665Z,62.12
2024-05-09T03:50:22.744Z,62.12
2024-05-09T03:51:17.473Z,62.12
2024-05-09T03:52:16.371Z,62.12
2024-05-09T03:53:16.589Z,62.12
2024-05-09T03:54:16.397Z,62.22
2024-05-09T03:55:16.344Z,62.12
2024-05-09T03:56:16.385Z,62.12
2024-05-09T03:57:16.330Z,62.22
2024-05-09T03:58:16.320Z,62.12
2024-05-09T03:59:16.360Z,62.12
2024-05-09T04:00:22.485Z,62.12
2024-05-09T04:01:17.295Z,62.12
2024-05-09T04:02:16.473Z,62.12
2024-05-09T04:03:16.846Z,62.22
2024-05-09T04:04:16.282Z,62.22
2024-05-09T04:05:16.522Z,62.22
2024-05-09T04:06:16.278Z,62.12
2024-05-09T04:07:16.219Z,62.12
2024-05-09T04:08:16.286Z,62.22
2024-05-09T04:09:16.204Z,62.22
2024-05-09T04:10:24.084Z,62.22
2024-05-09T04:11:17.371Z,62.22
2024-05-09T04:12:16.281Z,62.22
2024-05-09T04:13:16.168Z,62.22
2024-05-09T04:14:16.206Z,62.22
2024-05-09T04:15:16.125Z,62.22
2024-05-09T04:16:16.201Z,62.22
2024-05-09T04:17:16.146Z,62.22
2024-05-09T04:18:16.260Z,62.22
2024-05-09T04:19:16.208Z,62.22
2024-05-09T04:20:28.577Z,62.22
2024-05-09T04:21:17.120Z,62.22
2024-05-09T04:22:16.058Z,62.22
2024-05-09T04:23:16.080Z,62.22
2024-05-09T04:24:16.039Z,62.22
2024-05-09T04:25:16.068Z,62.22
2024-05-09T04:26:16.048Z,62.22
2024-05-09T04:27:16.013Z,62.22
2024-05-09T04:28:16.008Z,62.22
2024-05-09T04:29:16.032Z,62.22
2024-05-09T04:30:25.392Z,62.22
2024-05-09T04:31:17.000Z,62.22
2024-05-09T04:32:16.006Z,62.22
2024-05-09T04:33:16.107Z,62.22
2024-05-09T04:34:16.184Z,62.22
2024-05-09T04:35:15.962Z,62.22
2024-05-09T04:36:15.953Z,62.22
2024-05-09T04:37:15.897Z,62.22
2024-05-09T04:38:16.199Z,62.22
2024-05-09T04:39:15.899Z,62.22
2024-05-09T04:40:24.271Z,62.22
2024-05-09T04:41:16.944Z,62.22
2024-05-09T04:42:15.855Z,62.22
2024-05-09T04:43:15.868Z,62.22
2024-05-09T04:44:15.887Z,62.22
2024-05-09T04:45:15.811Z,62.22
2024-05-09T04:46:15.832Z,62.22
2024-05-09T04:47:15.926Z,62.22
2024-05-09T04:48:15.970Z,62.22
2024-05-09T04:49:15.904Z,62.22
2024-05-09T04:50:24.650Z,62.22
2024-05-09T04:51:16.834Z,62.22
2024-05-09T04:52:15.736Z,62.22
2024-05-09T04:53:15.876Z,62.22
2024-05-09T04:54:26.151Z,62.22
2024-05-09T04:55:16.701Z,62.22
2024-05-09T04:56:15.773Z,62.22
2024-05-09T04:57:15.745Z,62.22
2024-05-09T04:58:15.674Z,62.22
2024-05-09T04:59:15.737Z,62.22
2024-05-09T05:00:21.827Z,62.22
2024-05-09T05:01:16.650Z,62.32
2024-05-09T05:02:15.822Z,62.32
2024-05-09T05:03:16.716Z,62.22
2024-05-09T05:04:15.813Z,62.22
2024-05-09T05:05:15.663Z,62.32
2024-05-09T05:06:15.585Z,62.22
2024-05-09T05:07:15.564Z,62.32
2024-05-09T05:08:16.493Z,62.32
2024-05-09T05:09:15.576Z,62.32
2024-05-09T05:10:21.576Z,62.32
2024-05-09T05:11:16.688Z,62.32
2024-05-09T05:12:15.617Z,62.32
2024-05-09T05:13:15.518Z,62.32
2024-05-09T05:14:15.576Z,62.32
2024-05-09T05:15:15.484Z,62.32
2024-05-09T05:16:15.484Z,62.32
2024-05-09T05:17:15.529Z,62.32
2024-05-09T05:18:15.684Z,62.32
2024-05-09T05:19:17.551Z,62.32
2024-05-09T05:20:24.351Z,62.32
2024-05-09T05:21:16.476Z,62.32
2024-05-09T05:22:15.415Z,62.32
2024-05-09T05:23:16.098Z,62.32
2024-05-09T05:24:15.382Z,62.32
2024-05-09T05:25:15.423Z,62.32
2024-05-09T05:26:15.422Z,62.32
2024-05-09T05:27:15.374Z,62.32
2024-05-09T05:28:15.349Z,62.32
2024-05-09T05:29:17.213Z,62.32
2024-05-09T05:30:21.260Z,62.32
2024-05-09T05:31:16.378Z,62.32
2024-05-09T05:32:15.542Z,62.32
2024-05-09T05:33:15.786Z,62.32
2024-05-09T05:34:15.285Z,62.32
2024-05-09T05:35:15.357Z,62.32
2024-05-09T05:36:15.254Z,62.32
2024-05-09T05:37:15.255Z,62.32
2024-05-09T05:38:15.316Z,62.32
2024-05-09T05:39:15.225Z,62.32
2024-05-09T05:40:25.029Z,62.32
2024-05-09T05:41:16.291Z,62.32
2024-05-09T05:42:15.196Z,62.32
2024-05-09T05:43:15.190Z,62.32
2024-05-09T05:44:15.230Z,62.32
2024-05-09T05:45:15.169Z,62.32
2024-05-09T05:46:15.202Z,62.32
2024-05-09T05:47:15.273Z,62.32
2024-05-09T05:48:15.264Z,62.32
2024-05-09T05:49:15.229Z,62.32
2024-05-09T05:50:24.419Z,62.32
2024-05-09T05:51:16.339Z,62.32
2024-05-09T05:52:15.093Z,62.32
2024-05-09T05:53:15.155Z,62.32
2024-05-09T05:54:15.069Z,62.32
2024-05-09T05:55:15.053Z,62.32
2024-05-09T05:56:15.105Z,62.32
2024-05-09T05:57:15.034Z,62.32
2024-05-09T05:58:15.126Z,62.32
2024-05-09T05:59:15.573Z,62.32
2024-05-09T06:00:25.331Z,62.32
2024-05-09T06:01:16.080Z,62.32
2024-05-09T06:02:15.131Z,62.32
2024-05-09T06:03:15.160Z,62.32
2024-05-09T06:04:15.044Z,62.32
2024-05-09T06:05:14.974Z,62.32
2024-05-09T06:06:14.976Z,62.32
2024-05-09T06:07:14.961Z,62.32
2024-05-09T06:08:14.952Z,62.32
2024-05-09T06:09:14.902Z,62.32
2024-05-09T06:10:21.317Z,62.32
2024-05-09T06:11:15.946Z,62.32
2024-05-09T06:12:15.032Z,62.32
2024-05-09T06:13:14.871Z,62.32
2024-05-09T06:14:14.936Z,62.32
2024-05-09T06:15:14.844Z,62.32
2024-05-09T06:16:14.826Z,62.32
2024-05-09T06:17:14.868Z,62.32
2024-05-09T06:18:15.132Z,62.32
2024-05-09T06:19:15.053Z,62.32
2024-05-09T06:20:20.663Z,62.32
2024-05-09T06:21:15.856Z,62.32
2024-05-09T06:22:14.760Z,62.32
2024-05-09T06:23:14.840Z,62.32
2024-05-09T06:24:14.742Z,62.32
2024-05-09T06:25:14.782Z,62.32
2024-05-09T06:26:14.797Z,62.32
2024-05-09T06:27:14.718Z,62.32
2024-05-09T06:28:14.699Z,62.32
2024-05-09T06:29:14.738Z,62.32
2024-05-09T06:30:25.610Z,62.32
2024-05-09T06:31:15.715Z,62.32
2024-05-09T06:32:14.758Z,62.32
2024-05-09T06:33:16.326Z,62.32
2024-05-09T06:34:14.774Z,62.42
2024-05-09T06:35:14.722Z,62.42
2024-05-09T06:36:14.676Z,62.42
2024-05-09T06:37:14.608Z,62.32
2024-05-09T06:38:14.821Z,62.42
2024-05-09T06:39:14.577Z,62.42
2024-05-09T06:40:17.423Z,62.42
2024-05-09T06:41:14.626Z,62.42
2024-05-09T06:42:14.551Z,62.42
2024-05-09T06:43:15.383Z,62.42
2024-05-09T06:44:14.639Z,62.42
2024-05-09T06:45:14.515Z,62.42
2024-05-09T06:46:14.557Z,62.42
2024-05-09T06:47:14.543Z,62.32
2024-05-09T06:48:14.784Z,62.42
2024-05-09T06:49:14.886Z,62.42
2024-05-09T06:50:23.251Z,62.42
2024-05-09T06:51:15.578Z,62.42
2024-05-09T06:52:14.456Z,62.42
2024-05-09T06:53:14.606Z,62.42
2024-05-09T06:54:14.430Z,62.42
2024-05-09T06:55:14.412Z,62.42
2024-05-09T06:56:14.455Z,62.42
2024-05-09T06:57:14.379Z,62.42
2024-05-09T06:58:14.416Z,62.42
2024-05-09T06:59:14.490Z,62.42
2024-05-09T07:00:22.741Z,62.42
2024-05-09T07:01:15.424Z,62.42
2024-05-09T07:02:14.456Z,62.42
2024-05-09T07:03:16.880Z,62.42
2024-05-09T07:04:14.559Z,62.42
2024-05-09T07:05:14.425Z,62.42
2024-05-09T07:06:14.344Z,62.42
2024-05-09T07:07:14.292Z,62.42
2024-05-09T07:08:14.564Z,62.42
2024-05-09T07:09:14.268Z,62.42
2024-05-09T07:10:21.938Z,62.42
2024-05-09T07:11:15.307Z,62.42
2024-05-09T07:12:14.365Z,62.42
2024-05-09T07:13:14.791Z,62.42
2024-05-09T07:14:14.233Z,62.42
2024-05-09T07:15:14.198Z,62.42
2024-05-09T07:16:14.178Z,62.42
2024-05-09T07:17:14.269Z,62.42
2024-05-09T07:18:14.355Z,62.42
2024-05-09T07:19:14.553Z,62.42
2024-05-09T07:20:22.892Z,62.42
2024-05-09T07:21:15.412Z,62.42
2024-05-09T07:22:14.117Z,62.42
2024-05-09T07:23:14.179Z,62.42
2024-05-09T07:24:14.166Z,62.42
2024-05-09T07:25:14.082Z,62.42
2024-05-09T07:26:14.185Z,62.42
2024-05-09T07:27:14.080Z,62.42
2024-05-09T07:28:14.079Z,62.42
2024-05-09T07:29:14.088Z,62.42
2024-05-09T07:30:20.078Z,62.42
2024-05-09T07:31:15.058Z,62.42
2024-05-09T07:32:14.102Z,62.42
2024-05-09T07:33:14.129Z,62.42
2024-05-09T07:34:14.121Z,62.42
2024-05-09T07:35:14.043Z,62.42
2024-05-09T07:36:14.011Z,62.42
2024-05-09T07:37:13.963Z,62.42
2024-05-09T07:38:14.090Z,62.42
2024-05-09T07:39:13.943Z,62.42
2024-05-09T07:41:13.939Z,62.42
2024-05-09T07:42:13.940Z,62.42
2024-05-09T07:43:13.985Z,62.42
2024-05-09T07:44:13.923Z,62.42
2024-05-09T07:45:29.915Z,62.42
2024-05-09T07:48:28.293Z,62.42
2024-05-09T07:49:45.236Z,62.42
2024-05-09T07:53:29.737Z,62.42
2024-05-09T07:53:37.777Z,62.42
2024-05-09T07:54:15.084Z,62.42
2024-05-09T07:55:13.892Z,62.42
2024-05-09T07:56:14.103Z,62.42
2024-05-09T07:57:13.914Z,62.42
2024-05-09T07:58:13.771Z,62.42
2024-05-09T07:59:13.726Z,62.42
2024-05-09T08:00:17.300Z,62.42
2024-05-09T08:01:15.097Z,62.42
2024-05-09T08:02:13.814Z,62.42
2024-05-09T08:03:13.753Z,62.42
2024-05-09T08:04:13.823Z,62.42
2024-05-09T08:05:13.746Z,62.42
2024-05-09T08:06:13.700Z,62.42
2024-05-09T08:07:13.776Z,62.42
2024-05-09T08:08:13.657Z,62.42
2024-05-09T08:09:16.956Z,62.42
2024-05-09T08:10:18.796Z,62.42
2024-05-09T08:11:14.619Z,62.42
2024-05-09T08:12:13.621Z,62.42
2024-05-09T08:13:13.683Z,62.42
2024-05-09T08:14:13.556Z,62.42
2024-05-09T08:15:13.540Z,62.42
2024-05-09T08:16:13.699Z,62.42
2024-05-09T08:17:13.531Z,62.42
2024-05-09T08:18:13.580Z,62.42
2024-05-09T08:19:13.588Z,62.42
2024-05-09T08:20:22.549Z,62.42
2024-05-09T08:21:14.479Z,62.42
2024-05-09T08:22:13.594Z,62.42
2024-05-09T08:23:13.508Z,62.42
2024-05-09T08:24:13.451Z,62.42
2024-05-09T08:25:14.129Z,62.42
2024-05-09T08:26:13.435Z,62.42
2024-05-09T08:27:13.431Z,62.42
2024-05-09T08:28:13.726Z,62.42
2024-05-09T08:29:13.427Z,62.42
2024-05-09T08:30:21.737Z,62.42
2024-05-09T08:31:14.500Z,62.42
2024-05-09T08:32:13.469Z,62.42
2024-05-09T08:33:13.471Z,62.42
2024-05-09T08:34:13.514Z,62.52
2024-05-09T08:35:13.320Z,62.52
2024-05-09T08:36:13.330Z,62.42
2024-05-09T08:37:21.164Z,62.42
2024-05-09T08:38:14.347Z,62.42
2024-05-09T08:39:13.322Z,62.52
2024-05-09T08:40:23.605Z,62.42
2024-05-09T08:41:14.263Z,62.52
2024-05-09T08:42:13.247Z,62.42
2024-05-09T08:43:13.470Z,62.42
2024-05-09T08:44:13.505Z,62.42
2024-05-09T08:45:13.218Z,62.52
2024-05-09T08:46:13.379Z,62.52
2024-05-09T08:47:13.232Z,62.42
2024-05-09T08:48:13.864Z,62.42
2024-05-09T08:49:13.347Z,62.52
2024-05-09T08:50:24.126Z,62.52
2024-05-09T08:51:14.155Z,62.52
2024-05-09T08:52:13.190Z,62.52
2024-05-09T08:53:13.135Z,62.52
2024-05-09T08:54:13.126Z,62.52
2024-05-09T08:55:13.203Z,62.52
2024-05-09T08:56:13.148Z,62.52
2024-05-09T08:57:13.096Z,62.52
2024-05-09T08:58:13.275Z,62.52
2024-05-09T08:59:13.076Z,62.52
2024-05-09T09:00:18.020Z,62.52
2024-05-09T09:01:14.158Z,62.52
2024-05-09T09:02:13.248Z,62.52
2024-05-09T09:03:13.102Z,62.52
2024-05-09T09:04:13.368Z,62.52
2024-05-09T09:05:13.110Z,62.52
2024-05-09T09:06:13.034Z,62.52
2024-05-09T09:07:13.028Z,62.52
2024-05-09T09:08:12.967Z,62.52
2024-05-09T09:09:12.966Z,62.52
2024-05-09T09:10:17.856Z,62.52
2024-05-09T09:11:14.054Z,62.52
2024-05-09T09:12:12.926Z,62.52
2024-05-09T09:13:13.127Z,62.52
2024-05-09T09:14:12.897Z,62.52
2024-05-09T09:15:12.898Z,62.52
2024-05-09T09:16:13.094Z,62.52
2024-05-09T09:17:12.938Z,62.52
2024-05-09T09:18:12.958Z,62.52
2024-05-09T09:19:12.977Z,62.52
2024-05-09T09:20:16.598Z,62.52
2024-05-09T09:21:13.837Z,62.52
2024-05-09T09:22:12.977Z,62.52
2024-05-09T09:23:12.827Z,62.52
2024-05-09T09:24:12.797Z,62.52
2024-05-09T09:25:12.805Z,62.52
2024-05-09T09:26:12.779Z,62.52
2024-05-09T09:27:12.767Z,62.62
2024-05-09T09:28:12.934Z,62.62
2024-05-09T09:29:12.750Z,62.62
2024-05-09T09:30:27.387Z,62.62
2024-05-09T09:31:13.751Z,62.62
2024-05-09T09:32:12.740Z,62.62
2024-05-09T09:33:13.021Z,62.62
2024-05-09T09:34:12.963Z,62.62
2024-05-09T09:35:12.684Z,62.62
2024-05-09T09:36:12.753Z,62.62
2024-05-09T09:37:12.781Z,62.62
2024-05-09T09:38:12.646Z,62.62
2024-05-09T09:39:12.670Z,62.62
2024-05-09T09:40:13.375Z,62.62
2024-05-09T09:41:12.668Z,62.62
2024-05-09T09:42:12.617Z,62.62
2024-05-09T09:43:12.770Z,62.62
2024-05-09T09:44:12.628Z,62.52
2024-05-09T09:45:12.571Z,62.52
2024-05-09T09:46:13.149Z,62.52
2024-05-09T09:47:12.608Z,62.52
2024-05-09T09:48:12.952Z,62.52
2024-05-09T09:49:12.652Z,62.52
2024-05-09T09:50:16.903Z,62.52
2024-05-09T09:51:13.497Z,62.52
2024-05-09T09:52:12.607Z,62.52
2024-05-09T09:53:12.488Z,62.52
2024-05-09T09:54:12.534Z,62.52
2024-05-09T09:55:12.516Z,62.52
2024-05-09T09:56:12.460Z,62.52
2024-05-09T09:57:12.435Z,62.52
2024-05-09T09:58:14.264Z,62.52
2024-05-09T09:59:12.425Z,62.52
2024-05-09T10:00:17.309Z,62.52
2024-05-09T10:01:13.590Z,62.52
2024-05-09T10:02:12.555Z,62.52
2024-05-09T10:03:12.467Z,62.52
2024-05-09T10:04:12.475Z,62.52
2024-05-09T10:05:12.589Z,62.52
2024-05-09T10:06:12.351Z,62.52
2024-05-09T10:07:12.484Z,62.52
2024-05-09T10:08:12.354Z,62.52
2024-05-09T10:09:12.311Z,62.52
2024-05-09T10:10:16.154Z,62.52
2024-05-09T10:11:12.351Z,62.52
2024-05-09T10:12:12.357Z,62.52
2024-05-09T10:13:12.293Z,62.52
2024-05-09T10:14:12.252Z,62.52
2024-05-09T10:15:12.248Z,62.52
2024-05-09T10:16:12.611Z,62.52
2024-05-09T10:17:12.269Z,62.52
2024-05-09T10:18:12.516Z,62.52
2024-05-09T10:19:12.270Z,62.52
2024-05-09T10:20:21.133Z,62.52
2024-05-09T10:21:13.212Z,62.52
2024-05-09T10:22:12.252Z,62.52
2024-05-09T10:23:12.165Z,62.52
2024-05-09T10:24:12.145Z,62.52
2024-05-09T10:25:12.257Z,62.52
2024-05-09T10:26:12.180Z,62.52
2024-05-09T10:27:12.123Z,62.52
2024-05-09T10:28:12.245Z,62.52
2024-05-09T10:29:12.097Z,62.52
2024-05-09T10:30:17.858Z,62.62
2024-05-09T10:31:13.537Z,62.62
2024-05-09T10:32:12.069Z,62.62
2024-05-09T10:33:12.250Z,62.62
2024-05-09T10:34:12.150Z,62.62
2024-05-09T10:35:12.059Z,62.62
2024-05-09T10:36:12.084Z,62.62
2024-05-09T10:37:12.062Z,62.62
2024-05-09T10:38:12.021Z,62.62
2024-05-09T10:39:11.980Z,62.62
2024-05-09T10:40:19.838Z,62.62
2024-05-09T10:41:13.006Z,62.62
2024-05-09T10:42:11.997Z,62.62
2024-05-09T10:43:12.066Z,62.62
2024-05-09T10:44:11.937Z,62.62
2024-05-09T10:45:11.932Z,62.62
2024-05-09T10:46:12.162Z,62.62
2024-05-09T10:47:11.916Z,62.62
2024-05-09T10:48:12.060Z,62.62
2024-05-09T10:49:11.922Z,62.62
2024-05-09T10:50:21.997Z,62.62
2024-05-09T10:51:12.860Z,62.62
2024-05-09T10:52:11.927Z,62.62
2024-05-09T10:53:11.876Z,62.62
2024-05-09T10:54:11.823Z,62.62
2024-05-09T10:55:11.834Z,62.62
2024-05-09T10:56:11.813Z,62.62
2024-05-09T10:57:11.795Z,62.62
2024-05-09T10:58:12.048Z,62.62
2024-05-09T10:59:11.778Z,62.62
2024-05-09T11:00:18.993Z,62.62
2024-05-09T11:01:12.873Z,62.62
2024-05-09T11:02:11.893Z,62.62
2024-05-09T11:03:11.795Z,62.62
2024-05-09T11:04:11.896Z,62.62
2024-05-09T11:05:11.807Z,62.62
2024-05-09T11:06:11.815Z,62.62
2024-05-09T11:07:11.769Z,62.62
2024-05-09T11:08:11.761Z,62.52
2024-05-09T11:09:11.666Z,62.62
2024-05-09T11:10:14.559Z,62.62
2024-05-09T11:11:11.641Z,62.62
2024-05-09T11:12:11.667Z,62.52
2024-05-09T11:13:11.668Z,62.52
2024-05-09T11:14:11.685Z,62.52
2024-05-09T11:15:11.594Z,62.52
2024-05-09T11:16:11.609Z,62.52
2024-05-09T11:17:11.602Z,62.52
2024-05-09T11:18:11.695Z,62.52
2024-05-09T11:19:11.633Z,62.52
2024-05-09T11:20:17.104Z,62.52
2024-05-09T11:21:13.470Z,62.52
2024-05-09T11:22:11.540Z,62.52
2024-05-09T11:23:11.516Z,62.52
2024-05-09T11:24:11.908Z,62.52
2024-05-09T11:25:11.632Z,62.52
2024-05-09T11:26:11.508Z,62.52
2024-05-09T11:27:11.464Z,62.52
2024-05-09T11:28:11.501Z,62.52
2024-05-09T11:29:11.443Z,62.52
2024-05-09T11:30:14.447Z,62.52
2024-05-09T11:31:12.498Z,62.52
2024-05-09T11:32:11.452Z,62.52
2024-05-09T11:33:11.464Z,62.52
2024-05-09T11:34:11.463Z,62.52
2024-05-09T11:35:11.386Z,62.52
2024-05-09T11:36:11.455Z,62.52
2024-05-09T11:37:11.401Z,62.52
2024-05-09T11:38:11.366Z,62.52
2024-05-09T11:39:11.355Z,62.52
2024-05-09T11:40:17.021Z,62.52
2024-05-09T11:41:12.351Z,62.52
2024-05-09T11:42:11.309Z,62.52
2024-05-09T11:43:11.353Z,62.52
2024-05-09T11:44:11.293Z,62.52
2024-05-09T11:45:11.309Z,62.52
2024-05-09T11:46:11.443Z,62.52
2024-05-09T11:47:11.333Z,62.52
2024-05-09T11:48:11.352Z,62.52
2024-05-09T11:49:11.521Z,62.52
2024-05-09T11:50:19.001Z,62.52
2024-05-09T11:51:12.217Z,62.52
2024-05-09T11:52:11.251Z,62.52
2024-05-09T11:53:11.199Z,62.52
2024-05-09T11:54:11.178Z,62.52
2024-05-09T11:55:11.272Z,62.52
2024-05-09T11:56:11.206Z,62.52
2024-05-09T11:57:11.140Z,62.52
2024-05-09T11:58:11.330Z,62.52
2024-05-09T11:59:11.125Z,62.52
2024-05-09T12:00:15.016Z,62.52
2024-05-09T12:01:12.248Z,62.52
2024-05-09T12:02:11.416Z,62.52
2024-05-09T12:03:11.131Z,62.52
2024-05-09T12:04:11.309Z,62.52
2024-05-09T12:05:11.182Z,62.52
2024-05-09T12:06:11.117Z,62.52
2024-05-09T12:07:12.874Z,62.52
2024-05-09T12:08:11.040Z,62.52
2024-05-09T12:09:11.027Z,62.52
2024-05-09T12:10:16.592Z,62.52
2024-05-09T12:11:12.169Z,62.49
2024-05-09T12:12:11.006Z,62.52
2024-05-09T12:13:11.030Z,62.52
2024-05-09T12:14:10.965Z,62.52
2024-05-09T12:15:10.959Z,62.52
2024-05-09T12:16:11.113Z,62.52
2024-05-09T12:17:11.021Z,62.52
2024-05-09T12:18:10.965Z,62.49
2024-05-09T12:19:10.959Z,62.49
2024-05-09T12:20:20.990Z,62.52
2024-05-09T12:21:11.938Z,62.49
2024-05-09T12:22:11.080Z,62.52
2024-05-09T12:23:11.059Z,62.52
2024-05-09T12:24:11.665Z,62.52
2024-05-09T12:25:10.947Z,62.49
2024-05-09T12:26:10.893Z,62.49
2024-05-09T12:27:10.824Z,62.52
2024-05-09T12:28:10.878Z,62.49
2024-05-09T12:29:10.804Z,62.49
2024-05-09T12:30:14.230Z,62.49
2024-05-09T12:31:11.862Z,62.52
2024-05-09T12:32:10.786Z,62.49
2024-05-09T12:33:11.974Z,62.39
2024-05-09T12:34:10.953Z,62.49
2024-05-09T12:35:10.740Z,62.39
2024-05-09T12:36:10.725Z,62.39
2024-05-09T12:37:10.746Z,62.39
2024-05-09T12:38:10.741Z,62.39
2024-05-09T12:39:10.696Z,62.39
2024-05-09T12:40:18.561Z,62.39
2024-05-09T12:41:11.682Z,62.39
2024-05-09T12:42:14.602Z,62.39
2024-05-09T12:43:12.184Z,62.39
2024-05-09T12:44:10.655Z,62.39
2024-05-09T12:45:10.637Z,62.39
2024-05-09T12:46:10.627Z,62.39
2024-05-09T12:47:10.619Z,62.39
2024-05-09T12:48:10.702Z,62.39
2024-05-09T12:49:11.004Z,62.39
2024-05-09T12:50:21.782Z,62.39
2024-05-09T12:51:11.569Z,62.39
2024-05-09T12:52:10.691Z,62.39
2024-05-09T12:53:10.550Z,62.39
2024-05-09T12:54:10.575Z,62.39
2024-05-09T12:55:10.699Z,62.39
2024-05-09T12:56:10.598Z,62.39
2024-05-09T12:57:10.508Z,62.39